createdAt,value
2023-02-19T00:01:56.067Z,100665.34
2023-02-19T00:04:27.265Z,100666.63
2023-02-19T00:06:53.987Z,100669.38
2023-02-19T00:09:25.487Z,100666.91
2023-02-19T00:11:59.720Z,100665.22
2023-02-19T00:14:26.364Z,100656.88
2023-02-19T00:16:55.191Z,100646.00
2023-02-19T00:19:28.674Z,100643.34
2023-02-19T00:21:55.386Z,100631.28
2023-02-19T00:24:24.196Z,100621.94
2023-02-19T00:26:50.859Z,100625.22
2023-02-19T00:29:24.310Z,100627.31
2023-02-19T00:31:54.340Z,100643.56
2023-02-19T00:34:21.152Z,100640.09
2023-02-19T00:36:47.822Z,100639.13
2023-02-19T00:39:25.736Z,100625.06
2023-02-19T00:42:02.753Z,100629.94
2023-02-19T00:44:29.496Z,100623.41
2023-02-19T00:46:56.120Z,100625.53
2023-02-19T00:49:33.470Z,100633.22
2023-02-19T00:52:00.122Z,100636.03
2023-02-19T00:54:27.745Z,100635.56
2023-02-19T00:56:54.412Z,100639.25
2023-02-19T00:59:30.234Z,100638.88
2023-02-19T01:01:57.146Z,100635.56
2023-02-19T01:04:23.951Z,100628.19
2023-02-19T01:06:55.616Z,100629.22
2023-02-19T01:09:25.365Z,100626.09
2023-02-19T01:11:54.596Z,100629.41
2023-02-19T01:14:28.859Z,100627.56
2023-02-19T01:16:55.563Z,100625.59
2023-02-19T01:19:25.361Z,100629.47
2023-02-19T01:21:55.118Z,100620.09
2023-02-19T01:24:24.278Z,100611.38
2023-02-19T01:26:58.586Z,100616.41
2023-02-19T01:29:25.260Z,100623.06
2023-02-19T01:31:54.820Z,100614.56
2023-02-19T01:34:23.819Z,100609.13
2023-02-19T01:36:51.436Z,100616.41
2023-02-19T01:39:18.133Z,100606.69
2023-02-19T01:41:55.141Z,100616.19
2023-02-19T01:44:21.742Z,100618.09
2023-02-19T01:46:58.647Z,100610.72
2023-02-19T01:49:28.461Z,100619.81
2023-02-19T01:52:02.675Z,100614.56
2023-02-19T01:54:32.667Z,100610.78
2023-02-19T01:57:00.109Z,100606.28
2023-02-19T01:59:26.747Z,100600.28
2023-02-19T02:01:55.805Z,100613.09
2023-02-19T02:04:25.746Z,100609.59
2023-02-19T02:06:55.225Z,100601.78
2023-02-19T02:09:49.546Z,100600.88
2023-02-19T02:12:16.222Z,100595.00
2023-02-19T02:14:45.950Z,100590.19
2023-02-19T02:17:25.611Z,100596.72
2023-02-19T02:20:14.203Z,100600.06
2023-02-19T02:23:00.780Z,100606.41
2023-02-19T02:25:52.807Z,100612.03
2023-02-19T02:28:23.220Z,100603.94
2023-02-19T02:30:57.290Z,100602.66
2023-02-19T02:33:33.883Z,100599.97
2023-02-19T02:36:08.328Z,100598.16
2023-02-19T02:38:39.662Z,100602.94
2023-02-19T02:41:06.820Z,100601.03
2023-02-19T02:43:33.853Z,100606.81
2023-02-19T02:46:11.702Z,100597.50
2023-02-19T02:48:53.953Z,100597.88
2023-02-19T02:51:33.391Z,100603.50
2023-02-19T02:54:29.710Z,100600.53
2023-02-19T02:56:58.665Z,100596.06
2023-02-19T02:59:33.010Z,100605.44
2023-02-19T03:02:14.470Z,100606.72
2023-02-19T03:05:06.274Z,100602.31
2023-02-19T03:07:42.200Z,100598.06
2023-02-19T03:10:15.178Z,100602.97
2023-02-19T03:13:01.831Z,100593.59
2023-02-19T03:15:51.015Z,100601.41
2023-02-19T03:18:37.755Z,100590.34
2023-02-19T03:21:05.837Z,100601.50
2023-02-19T03:23:52.083Z,100591.66
2023-02-19T03:26:19.936Z,100592.97
2023-02-19T03:29:10.044Z,100592.41
2023-02-19T03:31:39.983Z,100593.59
2023-02-19T03:34:14.392Z,100594.78
2023-02-19T03:36:46.824Z,100586.88
2023-02-19T03:39:15.772Z,100586.03
2023-02-19T03:41:55.116Z,100595.00
2023-02-19T03:44:52.316Z,100585.22
2023-02-19T03:47:53.138Z,100592.50
2023-02-19T03:50:26.598Z,100590.56
2023-02-19T03:53:12.921Z,100594.25
2023-02-19T03:55:57.967Z,100600.97
2023-02-19T03:58:28.533Z,100594.41
2023-02-19T04:01:13.248Z,100601.50
2023-02-19T04:03:47.126Z,100595.25
2023-02-19T04:06:19.578Z,100602.81
2023-02-19T04:08:50.279Z,100606.13
2023-02-19T04:11:18.662Z,100599.47
2023-02-19T04:13:58.480Z,100602.72
2023-02-19T04:16:28.552Z,100595.91
2023-02-19T04:18:59.474Z,100596.81
2023-02-19T04:21:29.207Z,100595.81
2023-02-19T04:23:59.473Z,100597.28
2023-02-19T04:26:26.288Z,100591.84
2023-02-19T04:28:55.497Z,100587.31
2023-02-19T04:31:22.680Z,100592.59
2023-02-19T04:33:49.380Z,100588.16
2023-02-19T04:36:16.051Z,100596.81
2023-02-19T04:38:42.718Z,100598.00
2023-02-19T04:41:12.783Z,100578.50
2023-02-19T04:43:39.607Z,100583.66
2023-02-19T04:46:06.388Z,100579.78
2023-02-19T04:48:36.061Z,100573.63
2023-02-19T04:51:07.153Z,100579.97
2023-02-19T04:53:37.480Z,100569.56
2023-02-19T04:56:25.577Z,100568.63
2023-02-19T04:58:52.253Z,100571.88
2023-02-19T05:01:18.970Z,100607.59
2023-02-19T05:03:45.611Z,100595.28
2023-02-19T05:06:13.469Z,100586.94
2023-02-19T05:08:40.971Z,100575.53
2023-02-19T05:11:10.699Z,100578.06
2023-02-19T05:13:46.324Z,100582.44
2023-02-19T05:16:16.000Z,100596.06
2023-02-19T05:18:52.421Z,100605.34
2023-02-19T05:21:19.206Z,100643.19
2023-02-19T05:23:45.850Z,100647.47
2023-02-19T05:26:17.892Z,100656.19
2023-02-19T05:28:49.014Z,100679.59
2023-02-19T05:31:16.213Z,100690.56
2023-02-19T05:33:44.191Z,100704.00
2023-02-19T05:36:12.846Z,100723.44
2023-02-19T05:38:40.509Z,100733.38
2023-02-19T05:41:21.011Z,100738.16
2023-02-19T05:43:48.666Z,100738.94
2023-02-19T05:46:18.079Z,100744.81
2023-02-19T05:48:44.833Z,100757.28
2023-02-19T05:51:16.976Z,100762.72
2023-02-19T05:53:44.432Z,100767.22
2023-02-19T05:56:26.303Z,100785.56
2023-02-19T05:58:53.785Z,100791.78
2023-02-19T06:01:23.406Z,100808.09
2023-02-19T06:03:58.107Z,100800.16
2023-02-19T06:06:25.714Z,100819.03
2023-02-19T06:08:52.546Z,100821.69
2023-02-19T06:11:21.712Z,100840.94
2023-02-19T06:13:51.089Z,100843.53
2023-02-19T06:16:18.472Z,100845.50
2023-02-19T06:18:45.712Z,100852.91
2023-02-19T06:21:12.759Z,100865.69
2023-02-19T06:23:43.040Z,100874.91
2023-02-19T06:26:11.313Z,100876.28
2023-02-19T06:28:39.110Z,100892.66
2023-02-19T06:31:06.371Z,100901.75
2023-02-19T06:33:41.288Z,100906.91
2023-02-19T06:36:13.847Z,100904.31
2023-02-19T06:38:49.885Z,100908.94
2023-02-19T06:41:16.793Z,100916.34
2023-02-19T06:43:43.574Z,100929.06
2023-02-19T06:46:20.314Z,100927.09
2023-02-19T06:48:47.062Z,100947.41
2023-02-19T06:51:15.772Z,100958.09
2023-02-19T06:53:42.427Z,100958.59
2023-02-19T06:56:23.410Z,100965.19
2023-02-19T06:58:50.386Z,100983.63
2023-02-19T07:01:19.424Z,100987.84
2023-02-19T07:03:46.183Z,100990.66
2023-02-19T07:06:12.822Z,101004.03
2023-02-19T07:08:39.542Z,101011.00
2023-02-19T07:11:06.202Z,101017.84
2023-02-19T07:13:35.978Z,101024.13
2023-02-19T07:16:07.983Z,101030.56
2023-02-19T07:18:38.631Z,101031.94
2023-02-19T07:21:11.394Z,101037.53
2023-02-19T07:23:38.483Z,101035.69
2023-02-19T07:26:08.267Z,101038.09
2023-02-19T07:28:37.455Z,101043.94
2023-02-19T07:31:06.677Z,101052.72
2023-02-19T07:33:33.340Z,101058.19
2023-02-19T07:36:12.979Z,101062.91
2023-02-19T07:38:39.971Z,101076.16
2023-02-19T07:41:07.035Z,101096.66
2023-02-19T07:43:41.063Z,101092.34
2023-02-19T07:46:13.293Z,101097.59
2023-02-19T07:48:41.122Z,101093.16
2023-02-19T07:51:12.569Z,101098.59
2023-02-19T07:53:39.430Z,101105.69
2023-02-19T07:56:07.889Z,101108.06
2023-02-19T07:58:42.317Z,101103.78
2023-02-19T08:01:11.790Z,101110.47
2023-02-19T08:03:39.195Z,101114.50
2023-02-19T08:06:10.917Z,101116.72
2023-02-19T08:08:38.960Z,101128.59
2023-02-19T08:11:24.888Z,101135.72
2023-02-19T08:13:52.594Z,101133.34
2023-02-19T08:16:29.549Z,101143.84
2023-02-19T08:19:04.265Z,101155.13
2023-02-19T08:21:32.991Z,101135.44
2023-02-19T08:24:00.820Z,101143.97
2023-02-19T08:26:27.498Z,101142.44
2023-02-19T08:28:54.150Z,101139.31
2023-02-19T08:31:21.064Z,101133.22
2023-02-19T08:33:47.737Z,101137.25
2023-02-19T08:36:16.707Z,101137.41
2023-02-19T08:38:43.449Z,101145.09
2023-02-19T08:41:12.637Z,101149.84
2023-02-19T08:43:40.931Z,101157.06
2023-02-19T08:46:10.185Z,101156.53
2023-02-19T08:48:37.729Z,101153.03
2023-02-19T08:51:08.280Z,101158.63
2023-02-19T08:53:36.786Z,101163.50
2023-02-19T08:56:07.392Z,101164.22
2023-02-19T08:58:37.407Z,101161.84
2023-02-19T09:01:12.212Z,101156.94
2023-02-19T09:03:39.293Z,101142.72
2023-02-19T09:06:06.224Z,101157.50
2023-02-19T09:08:35.743Z,101184.28
2023-02-19T09:11:09.487Z,101183.34
2023-02-19T09:13:36.514Z,101203.13
2023-02-19T09:16:04.810Z,101204.97
2023-02-19T09:18:32.051Z,101197.44
2023-02-19T09:21:04.595Z,101191.84
2023-02-19T09:23:35.760Z,101194.63
2023-02-19T09:26:08.651Z,101204.00
2023-02-19T09:28:41.627Z,101213.47
2023-02-19T09:31:14.881Z,101223.53
2023-02-19T09:33:45.562Z,101225.19
2023-02-19T09:36:13.122Z,101217.41
2023-02-19T09:38:40.602Z,101219.31
2023-02-19T09:41:15.737Z,101222.13
2023-02-19T09:43:43.364Z,101235.25
2023-02-19T09:46:24.676Z,101236.38
2023-02-19T09:48:53.687Z,101253.59
2023-02-19T09:51:20.664Z,101262.63
2023-02-19T09:53:49.810Z,101275.84
2023-02-19T09:56:17.353Z,101276.34
2023-02-19T09:58:49.884Z,101276.19
2023-02-19T10:01:17.077Z,101269.78
2023-02-19T10:03:48.411Z,101264.94
2023-02-19T10:06:20.538Z,101269.41
2023-02-19T10:08:48.301Z,101276.69
2023-02-19T10:11:18.947Z,101286.63
2023-02-19T10:14:03.331Z,101278.59
2023-02-19T10:16:30.540Z,101277.22
2023-02-19T10:18:57.258Z,101276.63
2023-02-19T10:21:30.804Z,101273.09
2023-02-19T10:24:01.396Z,101267.56
2023-02-19T10:26:28.178Z,101287.47
2023-02-19T10:28:56.811Z,101278.09
2023-02-19T10:31:26.564Z,101270.50
2023-02-19T10:33:58.280Z,101253.78
2023-02-19T10:36:42.936Z,101229.00
2023-02-19T10:39:24.238Z,101205.66
2023-02-19T10:42:02.261Z,101190.59
2023-02-19T10:44:35.612Z,101182.84
2023-02-19T10:47:02.319Z,101157.47
2023-02-19T10:49:33.151Z,101143.81
2023-02-19T10:52:21.856Z,101119.59
2023-02-19T10:55:03.828Z,101106.69
2023-02-19T10:57:33.118Z,101106.94
2023-02-19T11:00:03.756Z,101104.75
2023-02-19T11:02:31.332Z,101108.28
2023-02-19T11:05:23.284Z,101103.41
2023-02-19T11:08:20.986Z,101104.06
2023-02-19T11:10:48.410Z,101112.97
2023-02-19T11:13:22.120Z,101120.28
2023-02-19T11:15:52.676Z,101119.03
2023-02-19T11:18:25.116Z,101126.38
2023-02-19T11:20:57.626Z,101106.81
2023-02-19T11:23:28.671Z,101099.22
2023-02-19T11:25:57.843Z,101107.75
2023-02-19T11:28:38.919Z,101102.72
2023-02-19T11:31:28.994Z,101105.59
2023-02-19T11:34:00.973Z,101102.41
2023-02-19T11:36:32.089Z,101092.69
2023-02-19T11:39:03.183Z,101091.19
2023-02-19T11:41:37.011Z,101087.38
2023-02-19T11:44:50.988Z,101081.25
2023-02-19T11:47:46.023Z,101080.91
2023-02-19T11:50:19.828Z,101073.84
2023-02-19T11:53:10.658Z,101069.19
2023-02-19T11:55:59.328Z,101071.41
2023-02-19T11:58:44.852Z,101068.41
2023-02-19T12:01:17.596Z,101069.56
2023-02-19T12:04:23.090Z,101062.50
2023-02-19T12:07:06.700Z,101054.81
2023-02-19T12:09:49.041Z,101052.88
2023-02-19T12:12:46.067Z,101053.53
2023-02-19T12:15:26.431Z,101037.53
2023-02-19T12:17:56.124Z,101039.25
2023-02-19T12:20:24.950Z,101049.72
2023-02-19T12:22:54.512Z,101054.38
2023-02-19T12:25:42.397Z,101046.28
2023-02-19T12:28:08.970Z,101046.88
2023-02-19T12:30:47.571Z,101042.72
2023-02-19T12:33:36.099Z,101046.53
2023-02-19T12:36:08.675Z,101048.50
2023-02-19T12:39:06.517Z,101047.53
2023-02-19T12:41:45.209Z,101051.59
2023-02-19T12:44:36.971Z,101042.88
2023-02-19T12:47:06.692Z,101048.06
2023-02-19T12:49:37.280Z,101057.25
2023-02-19T12:52:11.107Z,101054.25
2023-02-19T12:54:43.327Z,101057.38
2023-02-19T12:57:17.545Z,101061.16
2023-02-19T12:59:48.143Z,101071.94
2023-02-19T13:02:17.928Z,101070.69
2023-02-19T13:05:11.086Z,101083.75
2023-02-19T13:07:44.177Z,101078.13
2023-02-19T13:10:10.826Z,101084.19
2023-02-19T13:12:40.819Z,101082.25
2023-02-19T13:15:12.649Z,101088.81
2023-02-19T13:17:49.475Z,101083.03
2023-02-19T13:20:32.666Z,101084.59
2023-02-19T13:23:25.600Z,101086.69
2023-02-19T13:26:07.542Z,101091.13
2023-02-19T13:29:15.814Z,101083.00
2023-02-19T13:32:05.134Z,100928.78
2023-02-19T13:35:06.059Z,100940.91
2023-02-19T13:37:35.736Z,100931.25
2023-02-19T13:40:07.088Z,100926.56
2023-02-19T13:42:35.535Z,100918.41
2023-02-19T13:45:06.330Z,100916.75
2023-02-19T13:47:53.046Z,100911.28
2023-02-19T13:50:40.750Z,100906.78
2023-02-19T13:53:45.130Z,100920.91
2023-02-19T13:56:29.961Z,100922.94
2023-02-19T13:58:58.239Z,100923.59
2023-02-19T14:01:51.496Z,100940.72
2023-02-19T14:04:40.162Z,100945.25
2023-02-19T14:07:06.740Z,100947.69
2023-02-19T14:09:36.711Z,100946.22
2023-02-19T14:12:27.732Z,100951.38
2023-02-19T14:14:55.282Z,100953.91
2023-02-19T14:17:38.438Z,100951.31
2023-02-19T14:20:17.086Z,100949.91
2023-02-19T14:22:48.802Z,100944.94
2023-02-19T14:25:25.667Z,100949.31
2023-02-19T14:27:53.795Z,100960.44
2023-02-19T14:30:21.608Z,100963.91
2023-02-19T14:32:58.493Z,100967.38
2023-02-19T14:35:43.404Z,100979.63
2023-02-19T14:38:29.259Z,100971.94
2023-02-19T14:40:56.023Z,100975.06
2023-02-19T14:43:24.805Z,100972.88
2023-02-19T14:45:56.809Z,100976.50
2023-02-19T14:48:31.970Z,100970.00
2023-02-19T14:51:08.204Z,100974.78
2023-02-19T14:53:47.851Z,100967.66
2023-02-19T14:56:26.738Z,100973.06
2023-02-19T14:59:19.642Z,100972.47
2023-02-19T15:01:46.456Z,100954.00
2023-02-19T15:04:26.432Z,100943.25
2023-02-19T15:06:57.699Z,100944.25
2023-02-19T15:09:33.211Z,100934.22
2023-02-19T15:12:00.467Z,100925.88
2023-02-19T15:14:30.827Z,100926.56
2023-02-19T15:17:01.460Z,100917.75
2023-02-19T15:19:34.990Z,100917.69
2023-02-19T15:22:02.557Z,100906.75
2023-02-19T15:24:29.498Z,100907.84
2023-02-19T15:26:58.769Z,100911.50
2023-02-19T15:29:30.442Z,100906.19
2023-02-19T15:32:02.481Z,100901.97
2023-02-19T15:34:31.413Z,100912.00
2023-02-19T15:37:05.114Z,100915.44
2023-02-19T15:39:46.561Z,100913.09
2023-02-19T15:42:20.426Z,100913.78
2023-02-19T15:45:08.891Z,100919.16
2023-02-19T15:47:45.966Z,100928.63
2023-02-19T15:50:32.305Z,100932.94
2023-02-19T15:53:09.172Z,100939.13
2023-02-19T15:55:45.064Z,100932.50
2023-02-19T15:58:25.128Z,100940.56
2023-02-19T16:00:56.445Z,100940.97
2023-02-19T16:03:24.948Z,100937.50
2023-02-19T16:06:24.920Z,100932.81
2023-02-19T16:09:01.832Z,100937.81
2023-02-19T16:11:38.043Z,100944.44
2023-02-19T16:14:24.608Z,100955.72
2023-02-19T16:16:58.919Z,100952.63
2023-02-19T16:19:44.684Z,100954.47
2023-02-19T16:22:22.177Z,100957.56
2023-02-19T16:24:53.786Z,100966.50
2023-02-19T16:27:39.842Z,100960.25
2023-02-19T16:30:30.228Z,100958.72
2023-02-19T16:33:26.480Z,100952.69
2023-02-19T16:35:57.938Z,100952.63
2023-02-19T16:38:24.830Z,100957.53
2023-02-19T16:40:52.404Z,100959.19
2023-02-19T16:43:41.757Z,100951.09
2023-02-19T16:46:14.591Z,100942.97
2023-02-19T16:48:41.572Z,100960.28
2023-02-19T16:51:09.717Z,100958.31
2023-02-19T16:53:37.031Z,100965.25
2023-02-19T16:56:07.987Z,100971.66
2023-02-19T16:58:42.070Z,100976.84
2023-02-19T17:01:16.159Z,100975.16
2023-02-19T17:03:43.294Z,100977.81
2023-02-19T17:06:11.414Z,100974.66
2023-02-19T17:08:39.919Z,100974.13
2023-02-19T17:11:20.078Z,100980.81
2023-02-19T17:13:49.353Z,100979.28
2023-02-19T17:16:41.744Z,100981.78
2023-02-19T17:19:19.087Z,100982.38
2023-02-19T17:21:46.815Z,100985.31
2023-02-19T17:24:13.883Z,100982.25
2023-02-19T17:26:40.487Z,100983.91
2023-02-19T17:29:13.829Z,100983.88
2023-02-19T17:31:40.697Z,100976.59
2023-02-19T17:34:07.505Z,100983.47
2023-02-19T17:36:34.538Z,100989.63
2023-02-19T17:39:04.948Z,100989.63
2023-02-19T17:41:34.065Z,100987.25
2023-02-19T17:44:00.708Z,100991.19
2023-02-19T17:46:27.827Z,100989.22
2023-02-19T17:48:54.932Z,100992.69
2023-02-19T17:51:22.255Z,100977.91
2023-02-19T17:53:51.630Z,100967.81
2023-02-19T17:56:20.322Z,100978.44
2023-02-19T17:58:47.732Z,100969.50
2023-02-19T18:01:15.112Z,100968.81
2023-02-19T18:03:42.220Z,100972.16
2023-02-19T18:06:09.032Z,100966.41
2023-02-19T18:08:38.584Z,100974.91
2023-02-19T18:11:09.422Z,100967.94
2023-02-19T18:13:45.581Z,100973.94
2023-02-19T18:16:15.714Z,100968.94
2023-02-19T18:18:43.004Z,100967.78
2023-02-19T18:21:18.697Z,100972.94
2023-02-19T18:23:46.934Z,100974.91
2023-02-19T18:26:18.981Z,100984.84
2023-02-19T18:28:45.696Z,100983.72
2023-02-19T18:31:12.682Z,100996.00
2023-02-19T18:33:39.650Z,100998.81
2023-02-19T18:36:18.842Z,101003.81
2023-02-19T18:38:46.312Z,101005.13
2023-02-19T18:41:13.920Z,101014.06
2023-02-19T18:43:48.840Z,101018.06
2023-02-19T18:46:15.676Z,101017.59
2023-02-19T18:48:42.453Z,101021.06
2023-02-19T18:51:10.914Z,101014.66
2023-02-19T18:53:47.035Z,101013.16
2023-02-19T18:56:13.756Z,101011.50
2023-02-19T18:58:40.422Z,101001.94
2023-02-19T19:01:10.473Z,101006.56
2023-02-19T19:03:37.426Z,101018.19
2023-02-19T19:06:08.725Z,101009.75
2023-02-19T19:08:37.951Z,101016.66
2023-02-19T19:11:07.214Z,101013.69
2023-02-19T19:13:34.050Z,101014.53
2023-02-19T19:16:00.817Z,101008.38
2023-02-19T19:18:27.951Z,101007.78
2023-02-19T19:20:56.724Z,101002.78
2023-02-19T19:23:23.485Z,101010.00
2023-02-19T19:25:50.356Z,101007.28
2023-02-19T19:28:17.145Z,101004.53
2023-02-19T19:30:43.855Z,100999.69
2023-02-19T19:33:12.158Z,100999.44
2023-02-19T19:35:40.687Z,101003.91
2023-02-19T19:38:07.379Z,100994.50
2023-02-19T19:40:34.053Z,100995.94
2023-02-19T19:43:00.746Z,100990.78
2023-02-19T19:45:27.578Z,100997.38
2023-02-19T19:47:58.747Z,100992.34
2023-02-19T19:50:25.663Z,100994.03
2023-02-19T19:52:52.388Z,100993.03
2023-02-19T19:55:21.466Z,100999.22
2023-02-19T19:57:52.346Z,101001.31
2023-02-19T20:00:22.265Z,101013.47
2023-02-19T20:02:51.625Z,101015.97
2023-02-19T20:05:21.255Z,101015.81
2023-02-19T20:07:55.680Z,101020.97
2023-02-19T20:10:22.490Z,101017.88
2023-02-19T20:12:49.364Z,101020.16
2023-02-19T20:15:21.788Z,101013.09
2023-02-19T20:17:49.255Z,101013.38
2023-02-19T20:20:19.098Z,101020.47
2023-02-19T20:22:45.873Z,101018.19
2023-02-19T20:25:24.935Z,101006.06
2023-02-19T20:27:52.652Z,101004.91
2023-02-19T20:30:22.225Z,101001.19
2023-02-19T20:32:49.407Z,100996.13
2023-02-19T20:35:17.741Z,100999.69
2023-02-19T20:37:46.495Z,101003.25
2023-02-19T20:40:17.731Z,100997.09
2023-02-19T20:42:46.821Z,101000.16
2023-02-19T20:45:34.034Z,100991.53
2023-02-19T20:48:01.038Z,100985.72
2023-02-19T20:50:27.949Z,100988.81
2023-02-19T20:52:57.272Z,100985.34
2023-02-19T20:55:26.007Z,100993.28
2023-02-19T20:57:52.811Z,100998.59
2023-02-19T21:00:34.199Z,100992.31
2023-02-19T21:03:01.111Z,100999.50
2023-02-19T21:05:28.004Z,100998.25
2023-02-19T21:08:04.223Z,101006.78
2023-02-19T21:10:31.145Z,100997.97
2023-02-19T21:12:58.181Z,101009.03
2023-02-19T21:15:32.270Z,101013.31
2023-02-19T21:17:59.345Z,101014.00
2023-02-19T21:20:26.204Z,101013.25
2023-02-19T21:22:52.943Z,101012.03
2023-02-19T21:25:19.683Z,101015.63
2023-02-19T21:27:53.713Z,101019.56
2023-02-19T21:30:20.584Z,101036.09
2023-02-19T21:32:49.858Z,101035.53
2023-02-19T21:35:19.127Z,101051.84
2023-02-19T21:37:51.095Z,101062.56
2023-02-19T21:40:22.170Z,101053.91
2023-02-19T21:42:49.342Z,101045.13
2023-02-19T21:45:23.611Z,101054.38
2023-02-19T21:47:55.006Z,101060.59
2023-02-19T21:50:22.657Z,101067.28
2023-02-19T21:52:49.536Z,101064.09
2023-02-19T21:55:23.802Z,101062.53
2023-02-19T21:57:56.027Z,101059.88
2023-02-19T22:00:23.021Z,101054.38
2023-02-19T22:02:50.141Z,101051.59
2023-02-19T22:05:20.027Z,101048.94
2023-02-19T22:07:54.457Z,101048.03
2023-02-19T22:10:21.713Z,101037.59
2023-02-19T22:12:51.538Z,101033.16
2023-02-19T22:15:21.225Z,101024.06
2023-02-19T22:17:50.875Z,101019.88
2023-02-19T22:20:21.718Z,101011.78
2023-02-19T22:22:51.461Z,101012.66
2023-02-19T22:25:22.257Z,101012.75
2023-02-19T22:27:51.454Z,101005.06
2023-02-19T22:30:20.735Z,100999.63
2023-02-19T22:32:49.942Z,100993.09
2023-02-19T22:35:24.159Z,101000.09
2023-02-19T22:37:51.182Z,100996.13
2023-02-19T22:40:35.524Z,101004.72
2023-02-19T22:43:09.617Z,100997.28
2023-02-19T22:45:36.281Z,101008.13
2023-02-19T22:48:02.894Z,101023.84
2023-02-19T22:50:29.536Z,101016.03
2023-02-19T22:52:56.159Z,101023.75
2023-02-19T22:55:22.784Z,101031.13
2023-02-19T22:57:49.488Z,101021.81
2023-02-19T23:00:18.554Z,101018.06
2023-02-19T23:02:59.689Z,101011.31
2023-02-19T23:05:26.426Z,100993.53
2023-02-19T23:07:53.136Z,101000.69
2023-02-19T23:10:28.415Z,101004.47
2023-02-19T23:12:55.092Z,100997.09
2023-02-19T23:15:21.780Z,100994.84
2023-02-19T23:17:48.482Z,100991.88
2023-02-19T23:20:24.075Z,100979.97
2023-02-19T23:22:50.789Z,100981.31
2023-02-19T23:25:19.610Z,100977.59
2023-02-19T23:27:53.687Z,100963.63
2023-02-19T23:30:20.702Z,100969.56
2023-02-19T23:32:50.930Z,100957.09
2023-02-19T23:35:19.992Z,100967.16
2023-02-19T23:37:51.378Z,100959.63
2023-02-19T23:40:20.828Z,100957.88
2023-02-19T23:42:56.765Z,100963.81
2023-02-19T23:45:23.544Z,100957.66
2023-02-19T23:47:50.202Z,100960.69
2023-02-19T23:50:24.383Z,100959.56
2023-02-19T23:52:53.604Z,100964.00
2023-02-19T23:55:20.270Z,100973.91
2023-02-19T23:57:54.464Z,100957.78
